Time;durP1;ratioP1;P1;durP2;ratioP2;P2;SDS_P1;SDS_P2;PMS_P1;PMS_P2;Temp;Humidity;BMP_temperature;BMP_pressure;BME280_temperature;BME280_humidity;BME280_pressure;Samples;Min_cycle;Max_cycle;Signal;HPM_P1;HPM_P2
2022/03/04 00:04:22;;;;;;;34.95;16.95;;;;;;;0.51;65.28;100633.91;20902521;28;20068;-78
2022/03/04 00:14:26;;;;;;;36.65;17.10;;;;;;;0.61;65.38;100635.91;20897920;28;20467;-76
2022/03/04 00:24:28;;;;;;;;;;;;;;;0.55;65.56;100632.31;20884142;28;20048;-76
2022/03/04 00:34:29;;;;;;;30.60;15.27;;;;;;;0.66;65.14;100625.75;20890280;28;19974;-76
2022/03/04 00:44:31;;;;;;;28.75;14.20;;;;;;;0.74;64.60;100634.56;20901464;28;20050;-75
2022/03/04 00:54:33;;;;;;;25.75;12.50;;;;;;;0.83;64.23;100619.38;20879396;28;20069;-76
2022/03/04 01:04:34;;;;;;;29.92;14.02;;;;;;;0.88;63.72;100617.78;20903663;28;20090;-77
2022/03/04 01:14:36;;;;;;;26.17;12.93;;;;;;;0.89;64.03;100624.66;20876072;28;20084;-77
2022/03/04 01:24:37;;;;;;;27.90;13.55;;;;;;;0.84;64.37;100617.66;20893076;28;20103;-75
2022/03/04 01:34:39;;;;;;;27.17;13.88;;;;;;;0.54;65.74;100628.88;20896622;28;20181;-75
2022/03/04 01:44:40;;;;;;;31.10;14.13;;;;;;;0.44;66.94;100608.84;20901331;28;20041;-78
2022/03/04 01:54:42;;;;;;;24.77;13.63;;;;;;;0.59;65.89;100604.09;20914604;28;20530;-78
2022/03/04 02:04:44;;;;;;;32.97;14.60;;;;;;;0.50;66.48;100609.00;20894259;28;20719;-76
2022/03/04 02:14:45;;;;;;;30.55;14.00;;;;;;;0.33;67.97;100615.34;20886398;28;20381;-76
2022/03/04 02:24:47;;;;;;;31.92;14.73;;;;;;;0.24;68.15;100616.00;20898875;28;20090;-78
2022/03/04 02:34:48;;;;;;;32.13;15.00;;;;;;;0.09;69.52;100620.66;20898821;28;20044;-77
2022/03/04 02:44:50;;;;;;;35.00;16.55;;;;;;;0.05;70.27;100621.38;20906704;28;20048;-76
2022/03/04 02:54:51;;;;;;;34.97;17.40;;;;;;;-0.11;71.47;100638.06;20901702;28;20045;-76
2022/03/04 03:04:53;;;;;;;38.95;17.70;;;;;;;-0.21;72.01;100630.88;20897300;28;20551;-76
2022/03/04 03:14:54;;;;;;;34.55;16.80;;;;;;;-0.62;74.54;100628.75;20910375;28;20098;-76
2022/03/04 03:24:56;;;;;;;41.67;17.90;;;;;;;-0.80;76.19;100639.28;20897903;28;20551;-76
2022/03/04 03:34:57;;;;;;;38.30;17.70;;;;;;;-0.83;76.69;100646.00;20947220;28;20049;-78
2022/03/04 03:44:59;;;;;;;38.33;17.52;;;;;;;-0.88;76.75;100630.44;20926953;28;20127;-77
2022/03/04 03:55:01;;;;;;;35.97;18.17;;;;;;;-1.03;78.27;100624.78;20881206;28;20651;-77
2022/03/04 04:05:02;;;;;;;39.90;17.75;;;;;;;-1.16;79.11;100625.16;20903186;28;20426;-76
2022/03/04 04:15:04;;;;;;;41.53;17.40;;;;;;;-1.25;79.80;100637.69;20935008;22;20045;-70
2022/03/04 04:25:06;;;;;;;38.38;17.92;;;;;;;-1.33;80.49;100638.31;20906280;28;20049;-68
2022/03/04 04:35:08;;;;;;;45.17;19.20;;;;;;;-1.41;82.00;100652.56;20902418;28;20040;-68
2022/03/04 04:45:10;;;;;;;37.67;17.08;;;;;;;-1.12;80.25;100666.44;20882151;28;20046;-68
2022/03/04 04:55:11;;;;;;;38.35;18.60;;;;;;;-1.09;79.44;100668.25;20891909;28;20103;-68
2022/03/04 05:05:13;;;;;;;45.97;19.48;;;;;;;-1.15;80.39;100679.19;20892533;28;20553;-68
2022/03/04 05:15:14;;;;;;;36.95;18.83;;;;;;;-1.29;80.98;100688.09;20895856;28;20049;-68
2022/03/04 05:25:15;;;;;;;40.72;19.10;;;;;;;-1.36;81.52;100701.50;20913325;28;20111;-67
2022/03/04 05:35:19;;;;;;;43.55;19.83;;;;;;;-1.53;83.11;100718.88;21020174;28;20040;-68
2022/03/04 05:45:20;;;;;;;38.60;17.48;;;;;;;-1.69;83.99;100711.38;21019195;28;20106;-67
2022/03/04 05:55:22;;;;;;;43.25;19.67;;;;;;;-1.68;84.41;100723.41;21028089;28;20520;-68
2022/03/04 06:05:24;;;;;;;39.63;19.10;;;;;;;-1.66;84.29;100735.50;21019563;28;20044;-68
2022/03/04 06:15:25;;;;;;;40.72;18.88;;;;;;;-1.69;84.63;100743.06;21023312;28;20414;-68
2022/03/04 06:25:27;;;;;;;44.45;20.63;;;;;;;-1.78;85.40;100752.97;21016850;28;20047;-68
2022/03/04 06:35:29;;;;;;;47.90;21.73;;;;;;;-1.64;85.06;100748.38;21020324;28;20097;-66
2022/03/04 06:45:31;;;;;;;46.60;20.17;;;;;;;-1.55;84.94;100762.44;21023427;28;20749;-67
2022/03/04 06:55:33;;;;;;;46.55;21.63;;;;;;;-1.45;85.11;100773.06;21016665;28;20041;-67
2022/03/04 07:05:36;;;;;;;48.08;21.50;;;;;;;-1.25;83.79;100777.28;21009475;28;20048;-67
2022/03/04 07:15:39;;;;;;;46.05;21.20;;;;;;;-0.81;81.78;100793.50;21016465;28;20040;-66
2022/03/04 07:25:40;;;;;;;54.90;25.55;;;;;;;-0.45;79.54;100801.63;21016605;28;20052;-66
2022/03/04 07:35:45;;;;;;;47.30;22.10;;;;;;;-0.22;78.85;100814.41;21018554;28;20553;-66
2022/03/04 07:45:46;;;;;;;46.92;22.42;;;;;;;0.02;77.11;100812.66;20968752;28;20039;-66
2022/03/04 07:55:48;;;;;;;49.75;24.55;;;;;;;0.57;73.72;100823.88;20941967;28;20514;-66
2022/03/04 08:05:50;;;;;;;47.10;22.63;;;;;;;0.81;72.46;100831.47;20943258;28;20049;-66
2022/03/04 08:15:51;;;;;;;48.00;23.67;;;;;;;1.07;71.04;100816.81;20936103;28;20127;-66
2022/03/04 08:25:53;;;;;;;47.60;23.52;;;;;;;1.36;68.64;100815.06;20975109;28;20106;-66
2022/03/04 08:35:54;;;;;;;48.75;23.50;;;;;;;1.61;68.50;100830.38;21005609;28;20106;-67
2022/03/04 08:45:56;;;;;;;46.33;24.73;;;;;;;1.81;66.69;100843.81;21016333;28;20048;-68
2022/03/04 08:55:57;;;;;;;46.17;24.23;;;;;;;2.02;65.59;100856.44;21032489;28;20075;-67
2022/03/04 09:05:59;;;;;;;53.10;25.35;;;;;;;2.41;64.83;100847.97;21021698;28;20101;-67
2022/03/04 09:16:01;;;;;;;44.85;23.42;;;;;;;2.72;63.80;100842.66;21021982;28;20064;-67
2022/03/04 09:26:02;;;;;;;47.85;23.88;;;;;;;3.20;61.06;100847.19;21028159;28;20462;-67
2022/03/04 09:36:05;;;;;;;50.05;25.60;;;;;;;3.45;59.55;100837.31;21021619;28;20049;-68
2022/03/04 09:46:07;;;;;;;47.95;23.95;;;;;;;3.78;58.88;100830.22;21025819;28;20052;-67
2022/03/04 09:56:09;;;;;;;51.30;25.55;;;;;;;4.12;56.94;100825.66;21022381;28;20094;-67
2022/03/04 10:06:11;;;;;;;49.10;24.45;;;;;;;4.52;55.66;100810.75;21017531;28;20037;-68
2022/03/04 10:16:22;;;;;;;53.20;25.92;;;;;;;4.85;55.76;100805.19;21020370;22;20505;-67
2022/03/04 10:26:28;;;;;;;45.60;24.30;;;;;;;5.29;52.03;100810.09;21018540;28;20080;-66
2022/03/04 10:36:32;;;;;;;46.10;24.15;;;;;;;5.61;52.04;100802.69;21015661;28;20117;-65
2022/03/04 10:46:53;;;;;;;42.78;22.85;;;;;;;5.90;51.11;100790.84;21025039;28;20060;-65
2022/03/04 10:56:55;;;;;;;48.03;23.52;;;;;;;5.80;49.92;100799.41;21030621;28;20054;-65
2022/03/04 11:06:57;;;;;;;44.08;23.60;;;;;;;6.24;49.77;100783.38;21014832;28;20048;-65
2022/03/04 11:16:59;;;;;;;43.25;22.42;;;;;;;6.39;48.04;100773.09;21019615;28;20485;-65
2022/03/04 11:27:05;;;;;;;40.03;21.85;;;;;;;6.57;44.64;100772.34;21013567;28;20055;-65
2022/03/04 11:37:20;;;;;;;47.50;20.70;;;;;;;6.78;43.82;100766.41;21018570;28;20493;-66
2022/03/04 11:47:22;;;;;;;39.07;19.33;;;;;;;6.91;42.64;100752.59;21019780;28;20485;-65
2022/03/04 11:57:35;;;;;;;36.78;20.10;;;;;;;6.91;42.29;100750.00;21008983;28;20097;-65
2022/03/04 12:07:36;;;;;;;35.65;19.55;;;;;;;7.34;41.28;100737.13;21020919;28;20040;-66
2022/03/04 12:17:52;;;;;;;38.58;20.30;;;;;;;7.47;41.14;100738.00;21012153;28;20109;-65
2022/03/04 12:27:54;;;;;;;32.00;15.52;;;;;;;7.64;37.91;100730.25;21012082;28;20044;-65
2022/03/04 12:37:56;;;;;;;27.20;15.40;;;;;;;7.65;40.67;100713.75;21014301;28;20619;-66
2022/03/04 12:47:58;;;;;;;23.73;13.25;;;;;;;7.82;35.66;100693.78;21009641;28;20515;-65
2022/03/04 12:58:00;;;;;;;28.10;15.18;;;;;;;7.63;40.06;100686.81;21012765;28;20110;-65
2022/03/04 13:08:01;;;;;;;30.48;17.00;;;;;;;7.93;37.22;100680.75;21007190;28;20049;-65
2022/03/04 13:18:03;;;;;;;32.92;16.55;;;;;;;8.14;37.86;100674.63;21008012;28;20060;-65
2022/03/04 13:28:04;;;;;;;29.73;15.27;;;;;;;8.07;38.46;100660.72;21016485;28;20471;-66
2022/03/04 13:38:19;;;;;;;25.17;13.43;;;;;;;8.17;35.50;100653.75;21016073;28;20037;-65
2022/03/04 13:48:23;;;;;;;22.50;11.50;;;;;;;8.29;32.86;100661.56;21020882;28;20060;-65
2022/03/04 13:58:24;;;;;;;22.00;12.30;;;;;;;8.43;33.48;100646.78;21021186;28;20052;-66
2022/03/04 14:08:27;;;;;;;25.10;12.65;;;;;;;8.52;34.73;100660.66;21016948;28;20467;-66
2022/03/04 14:18:29;;;;;;;20.52;11.07;;;;;;;8.40;33.73;100649.41;21026536;28;20097;-66
2022/03/04 14:28:32;;;;;;;25.50;13.15;;;;;;;8.39;35.53;100645.06;21022413;28;20157;-66
2022/03/04 14:38:35;;;;;;;24.45;13.00;;;;;;;8.41;36.01;100640.69;21017109;28;20408;-66
2022/03/04 14:48:38;;;;;;;21.42;12.00;;;;;;;8.55;34.54;100639.78;21024794;28;20039;-66
2022/03/04 14:58:40;;;;;;;24.02;12.55;;;;;;;8.45;35.28;100641.56;21011765;28;20047;-66
2022/03/04 15:08:41;;;;;;;21.90;11.82;;;;;;;8.54;35.28;100638.06;21021270;28;20044;-67
2022/03/04 15:18:51;;;;;;;18.20;10.10;;;;;;;8.31;34.71;100632.88;21022796;28;20072;-66
2022/03/04 15:28:53;;;;;;;20.13;10.07;;;;;;;8.25;35.23;100632.91;21012298;28;20043;-66
2022/03/04 15:38:54;;;;;;;17.45;8.88;;;;;;;8.28;33.59;100628.50;21028764;28;20362;-68
2022/03/04 15:48:55;;;;;;;18.65;9.77;;;;;;;8.01;34.69;100631.19;21016422;28;20044;-66
2022/03/04 15:58:57;;;;;;;19.77;9.98;;;;;;;8.06;34.04;100622.50;21009209;28;20107;-66
2022/03/04 16:08:59;;;;;;;19.98;10.80;;;;;;;8.11;34.60;100622.50;21023466;28;20044;-66
2022/03/04 16:19:04;;;;;;;20.58;9.98;;;;;;;7.91;34.17;100623.41;21007935;28;20056;-67
2022/03/04 16:29:06;;;;;;;20.17;10.73;;;;;;;7.76;34.92;100631.22;21015059;28;20044;-66
2022/03/04 16:39:10;;;;;;;16.25;8.48;;;;;;;7.28;35.26;100638.16;21008808;28;20442;-66
2022/03/04 16:49:11;;;;;;;20.92;11.13;;;;;;;7.27;36.23;100640.75;21005749;28;20485;-66
2022/03/04 16:59:13;;;;;;;23.30;10.82;;;;;;;6.87;37.17;100646.72;21015229;28;20082;-66
2022/03/04 17:09:36;;;;;;;27.10;14.55;;;;;;;6.45;38.72;100650.00;21022387;28;20511;-66
2022/03/04 17:19:40;;;;;;;30.17;15.88;;;;;;;6.24;38.72;100652.50;21025271;28;20044;-65
2022/03/04 17:29:44;;;;;;;;;;;;;;;5.84;40.62;100667.78;21034635;28;20102;-66
2022/03/04 17:39:46;;;;;;;41.20;20.85;;;;;;;5.38;42.91;100670.00;21024133;28;19920;-66
2022/03/04 17:49:48;;;;;;;14.77;7.38;;;;;;;4.68;45.36;100688.22;21026908;28;20044;-65
2022/03/04 17:59:49;;;;;;;17.48;8.45;;;;;;;4.24;46.31;100698.84;21028267;28;20044;-66
2022/03/04 18:09:51;;;;;;;63.05;22.77;;;;;;;4.19;47.09;100703.09;21018337;28;20485;-66
2022/03/04 18:19:52;;;;;;;77.30;33.28;;;;;;;3.75;50.45;100705.88;21024205;28;20591;-66
2022/03/04 18:29:54;;;;;;;35.28;17.27;;;;;;;3.51;49.58;100715.81;21018097;28;20056;-68
2022/03/04 18:40:17;;;;;;;34.95;16.08;;;;;;;3.50;49.85;100714.94;21015177;28;20124;-67
2022/03/04 18:50:19;;;;;;;35.00;17.60;;;;;;;3.68;49.57;100724.72;21023872;28;20055;-66
2022/03/04 19:00:20;;;;;;;32.13;15.65;;;;;;;3.71;49.36;100731.69;21012531;28;20040;-67
2022/03/04 19:10:26;;;;;;;34.60;17.20;;;;;;;3.60;49.83;100739.25;21019757;28;20056;-66
2022/03/04 19:20:30;;;;;;;45.38;19.77;;;;;;;3.60;50.49;100736.69;21022905;28;20195;-66
2022/03/04 19:30:34;;;;;;;33.72;17.67;;;;;;;3.67;50.23;100737.66;21013685;28;20066;-66
2022/03/04 19:40:42;;;;;;;37.27;17.30;;;;;;;3.53;50.99;100737.41;21016831;28;20041;-67
2022/03/04 19:50:43;;;;;;;28.35;13.02;;;;;;;3.55;50.35;100748.66;21019507;28;20048;-67
2022/03/04 20:00:45;;;;;;;26.25;12.25;;;;;;;3.48;52.00;100741.63;21008828;28;20063;-67
2022/03/04 20:10:46;;;;;;;31.35;15.50;;;;;;;3.19;53.19;100751.41;21017960;28;20044;-66
2022/03/04 20:20:49;;;;;;;34.50;15.75;;;;;;;3.08;53.29;100748.63;21007555;28;20036;-67
2022/03/04 20:30:52;;;;;;;33.30;14.20;;;;;;;2.80;55.08;100760.97;21017471;28;20052;-66
2022/03/04 20:40:54;;;;;;;32.08;16.08;;;;;;;2.63;55.64;100754.56;21014384;28;20459;-66
2022/03/04 20:50:55;;;;;;;41.53;21.10;;;;;;;2.38;56.92;100750.53;21003972;28;20198;-66
2022/03/04 21:00:56;;;;;;;29.80;14.05;;;;;;;2.24;57.97;100742.47;21018954;28;20036;-66
2022/03/04 21:10:58;;;;;;;24.70;13.82;;;;;;;1.89;59.79;100754.53;21010114;28;20052;-66
2022/03/04 21:21:01;;;;;;;28.17;12.98;;;;;;;1.34;61.89;100757.38;21007006;28;20805;-66
2022/03/04 21:31:03;;;;;;;30.08;12.88;;;;;;;1.02;64.28;100762.53;21016813;28;20055;-66
2022/03/04 21:41:04;;;;;;;26.67;12.63;;;;;;;1.10;63.29;100779.06;21009046;28;20048;-68
2022/03/04 21:51:06;;;;;;;31.88;13.77;;;;;;;1.48;61.61;100768.94;21017595;28;20049;-67
2022/03/04 22:01:07;;;;;;;32.50;13.80;;;;;;;1.51;61.73;100771.63;21025723;28;20048;-67
2022/03/04 22:11:09;;;;;;;36.72;14.05;;;;;;;1.36;62.80;100776.38;21020038;28;20040;-66
2022/03/04 22:21:11;;;;;;;32.22;14.00;;;;;;;0.99;65.00;100770.16;21024362;28;20040;-67
2022/03/04 22:31:12;;;;;;;35.53;14.02;;;;;;;0.70;66.90;100777.91;21014967;28;20497;-66
2022/03/04 22:41:14;;;;;;;36.08;15.43;;;;;;;0.46;68.99;100766.88;21023569;28;20052;-66
2022/03/04 22:51:15;;;;;;;28.73;12.10;;;;;;;0.33;69.92;100762.16;21021909;28;20434;-66
2022/03/04 23:01:26;;;;;;;28.92;13.13;;;;;;;0.25;71.29;100762.81;21017287;28;20036;-66
2022/03/04 23:11:28;;;;;;;32.65;13.23;;;;;;;0.02;72.89;100762.88;21035927;28;20045;-67
2022/03/04 23:21:29;;;;;;;26.52;11.68;;;;;;;-0.13;73.41;100758.13;21029405;28;20498;-66
2022/03/04 23:31:31;;;;;;;28.30;11.57;;;;;;;-0.29;75.95;100761.84;21027969;28;20109;-66
2022/03/04 23:41:33;;;;;;;28.52;12.95;;;;;;;-0.07;75.03;100766.03;21027103;28;20055;-66
2022/03/04 23:51:37;;;;;;;29.38;12.20;;;;;;;0.06;75.76;100760.47;21024111;28;20056;-66
